Darstellungsparameter: Aktuell verwendete Einstellungen:
Skalierung der Graphiken ... ?
xyx+y,   Skalierungsfaktor:      Skalierung: Modus: x, Faktor: 1
Darstellungszeitraum ... ?
Vom - - bis: - -   Zeitraum: 04.02.2021 - 04.02.2021
Min/Max/Avg-Anzeige ... ?
Zeige MMA aktuell
Zeige MMA Monat
Zeige MMA alles
Zeige --A aktuell
Zeige --A Monat
Zeige --A alles
Keine MMA-Anzeige
MMA:
Average (ber die Originaldaten)
MMA-Basis: 04.02.2021 - 04.02.2021
Quicknavigation für Darstellung... ?
Tage:      1T, 2T, 3T, 5T -1T -2T -3T -5T +1T +2T +3T +5T
Wochen: 1W, 2W, 3W -1W -2W -3W +1W +2W +3W
Monate: 1M, 3M, 6M -1M -3M -6M +1M +3M +6M
Jahre:    1J, 3J, 5J, 10J -1J -3J -5J -10J +1J +3J +5J +10J
Nutze für die Darstellung ... ?
Originaldaten oder Mittelwerte auf ...
Stundenbasis Tagesbasis Wochenbasis
Monatsbasis Jahresbasis      Datenbasis: Original-Daten
Darstellen als:
Statistik (Auto) Statistik J:M      Darstellung:
Zur Graphik,    zurück zur Übersicht aller Sensoren.
 
Tabellarische Datenbersicht: ?
 
Sensor: Nr:Datum:Temp:Abs-Feuchte:Windchill:Wind:
Aussen-T/F 1 04-02-2021 00:00:00 9.6 C 7.79 g/m*3 7.11 C 17.7 km/h
2 04-02-2021 00:05:00 9.5 C 7.74 g/m*3 7.58 C 12.9 km/h
3 04-02-2021 00:10:00 9.5 C 7.83 g/m*3 7.36 C 14.5 km/h
4 04-02-2021 00:15:00 9.4 C 7.69 g/m*3 6.53 C 20.9 km/h
5 04-02-2021 00:20:00 9.4 C 7.69 g/m*3 7.46 C 12.9 km/h
6 04-02-2021 00:25:00 9.4 C 7.69 g/m*3 6.69 C 19.3 km/h
7 04-02-2021 00:30:00 9.4 C 7.69 g/m*3 7.24 C 14.5 km/h
8 04-02-2021 00:35:00 9.3 C 7.64 g/m*3 6.73 C 17.7 km/h
9 04-02-2021 00:40:00 9.3 C 7.64 g/m*3 7.12 C 14.5 km/h
10 04-02-2021 00:45:00 9.2 C 7.59 g/m*3 6.61 C 17.7 km/h
11 04-02-2021 00:50:00 9.2 C 7.68 g/m*3 7.21 C 12.9 km/h
12 04-02-2021 00:55:00 9.2 C 7.68 g/m*3 6.44 C 19.3 km/h
13 04-02-2021 01:00:00 9.1 C 7.63 g/m*3 6.67 C 16.1 km/h
14 04-02-2021 01:05:00 9 C 7.58 g/m*3 6.97 C 12.9 km/h
15 04-02-2021 01:10:00 8.9 C 7.53 g/m*3 7.37 C 9.7 km/h
16 04-02-2021 01:15:00 8.8 C 7.49 g/m*3 6.5 C 14.5 km/h
17 04-02-2021 01:20:00 8.8 C 7.57 g/m*3 6.97 C 11.3 km/h
18 04-02-2021 01:25:00 8.8 C 7.57 g/m*3 6.97 C 11.3 km/h
19 04-02-2021 01:30:00 8.8 C 7.57 g/m*3 7.25 C 9.7 km/h
20 04-02-2021 01:35:00 8.7 C 7.52 g/m*3 7.13 C 9.7 km/h
21 04-02-2021 01:40:00 8.7 C 7.52 g/m*3 6.85 C 11.3 km/h
22 04-02-2021 01:45:00 8.6 C 7.48 g/m*3 6.73 C 11.3 km/h
23 04-02-2021 01:50:00 8.6 C 7.48 g/m*3 8.6 C 4.8 km/h
24 04-02-2021 01:55:00 8.4 C 7.47 g/m*3 6.49 C 11.3 km/h
25 04-02-2021 02:00:00 8.4 C 7.47 g/m*3 7.11 C 8.1 km/h
Sensor: Nr:Datum:Temp:Abs-Feuchte:Windchill:Wind:
Aussen-T/F 26 04-02-2021 02:05:00 8.3 C 7.42 g/m*3 6.66 C 9.7 km/h
27 04-02-2021 02:10:00 8.3 C 7.42 g/m*3 6.37 C 11.3 km/h
28 04-02-2021 02:15:00 8.3 C 7.42 g/m*3 7.41 C 6.4 km/h
29 04-02-2021 02:20:00 8.2 C 7.37 g/m*3 5.99 C 12.9 km/h
30 04-02-2021 02:25:00 8.1 C 7.32 g/m*3 6.42 C 9.7 km/h
31 04-02-2021 02:30:00 8.1 C 7.32 g/m*3 6.42 C 9.7 km/h
32 04-02-2021 02:35:00 7.9 C 7.23 g/m*3 5.89 C 11.3 km/h
33 04-02-2021 02:40:00 7.8 C 7.18 g/m*3 6.06 C 9.7 km/h
34 04-02-2021 02:45:00 7.7 C 7.14 g/m*3 6.71 C 6.4 km/h
35 04-02-2021 02:50:00 7.7 C 7.22 g/m*3 5.94 C 9.7 km/h
36 04-02-2021 02:55:00 7.6 C 7.17 g/m*3 6.6 C 6.4 km/h
37 04-02-2021 03:00:00 7.6 C 7.17 g/m*3 5.53 C 11.3 km/h
38 04-02-2021 03:05:00 7.7 C 7.22 g/m*3 5.38 C 12.9 km/h
39 04-02-2021 03:10:00 7.7 C 7.14 g/m*3 5.65 C 11.3 km/h
40 04-02-2021 03:15:00 7.7 C 7.05 g/m*3 5.94 C 9.7 km/h
41 04-02-2021 03:20:00 7.7 C 7.05 g/m*3 6.28 C 8.1 km/h
42 04-02-2021 03:25:00 7.6 C 7.01 g/m*3 5.82 C 9.7 km/h
43 04-02-2021 03:30:00 7.5 C 6.96 g/m*3 5.41 C 11.3 km/h
44 04-02-2021 03:35:00 7.4 C 6.92 g/m*3 5.28 C 11.3 km/h
45 04-02-2021 03:40:00 7.4 C 6.84 g/m*3 5.58 C 9.7 km/h
46 04-02-2021 03:45:00 7.3 C 6.87 g/m*3 5.16 C 11.3 km/h
47 04-02-2021 03:50:00 7.3 C 6.87 g/m*3 5.47 C 9.7 km/h
48 04-02-2021 03:55:00 7.3 C 6.87 g/m*3 5.47 C 9.7 km/h
49 04-02-2021 04:00:00 7.2 C 6.83 g/m*3 4.31 C 16.1 km/h
50 04-02-2021 04:05:00 7.2 C 6.83 g/m*3 4.77 C 12.9 km/h
Sensor: Nr:Datum:Temp:Abs-Feuchte:Windchill:Wind:
Aussen-T/F 51 04-02-2021 04:10:00 7.2 C 6.75 g/m*3 5.04 C 11.3 km/h
52 04-02-2021 04:15:00 7.2 C 6.75 g/m*3 3.58 C 22.5 km/h
53 04-02-2021 04:20:00 7.3 C 6.79 g/m*3 3.71 C 22.5 km/h
54 04-02-2021 04:25:00 7.3 C 6.79 g/m*3 4.23 C 17.7 km/h
55 04-02-2021 04:30:00 7.2 C 6.75 g/m*3 4.77 C 12.9 km/h
56 04-02-2021 04:35:00 7.2 C 6.75 g/m*3 5.04 C 11.3 km/h
57 04-02-2021 04:40:00 7.1 C 6.71 g/m*3 5.58 C 8.1 km/h
58 04-02-2021 04:45:00 7.1 C 6.71 g/m*3 4.41 C 14.5 km/h
59 04-02-2021 04:50:00 7.1 C 6.71 g/m*3 4.41 C 14.5 km/h
60 04-02-2021 04:55:00 7 C 6.66 g/m*3 7 C 4.8 km/h
61 04-02-2021 05:00:00 6.9 C 6.62 g/m*3 6.9 C 4.8 km/h
62 04-02-2021 05:05:00 6.8 C 6.58 g/m*3 4.56 C 11.3 km/h
63 04-02-2021 05:10:00 6.8 C 6.65 g/m*3 4.56 C 11.3 km/h
64 04-02-2021 05:15:00 6.7 C 6.53 g/m*3 4.75 C 9.7 km/h
65 04-02-2021 05:20:00 6.7 C 6.61 g/m*3 4.75 C 9.7 km/h
66 04-02-2021 05:25:00 6.6 C 6.57 g/m*3 4.32 C 11.3 km/h
67 04-02-2021 05:30:00 6.6 C 6.57 g/m*3 5.44 C 6.4 km/h
68 04-02-2021 05:35:00 6.4 C 6.48 g/m*3 4.39 C 9.7 km/h
69 04-02-2021 05:40:00 6.4 C 6.56 g/m*3 4.08 C 11.3 km/h
70 04-02-2021 05:45:00 6.4 C 6.56 g/m*3 4.39 C 9.7 km/h
71 04-02-2021 05:50:00 6.4 C 6.56 g/m*3 4.75 C 8.1 km/h
72 04-02-2021 05:55:00 6.3 C 6.51 g/m*3 4.64 C 8.1 km/h
73 04-02-2021 06:00:00 6.3 C 6.59 g/m*3 5.1 C 6.4 km/h
74 04-02-2021 06:05:00 6.2 C 6.55 g/m*3 4.98 C 6.4 km/h
75 04-02-2021 06:10:00 6.1 C 6.5 g/m*3 6.1 C 4.8 km/h
Sensor: Nr:Datum:Temp:Abs-Feuchte:Windchill:Wind:
Aussen-T/F 76 04-02-2021 06:15:00 6.1 C 6.58 g/m*3 4.04 C 9.7 km/h
77 04-02-2021 06:20:00 6.1 C 6.58 g/m*3 4.86 C 6.4 km/h
78 04-02-2021 06:25:00 6.1 C 6.58 g/m*3 4.86 C 6.4 km/h
79 04-02-2021 06:30:00 6.1 C 6.65 g/m*3 4.86 C 6.4 km/h
80 04-02-2021 06:35:00 6.2 C 6.69 g/m*3 4.15 C 9.7 km/h
81 04-02-2021 06:40:00 6.3 C 6.66 g/m*3 3.68 C 12.9 km/h
82 04-02-2021 06:45:00 6.4 C 6.71 g/m*3 4.39 C 9.7 km/h
83 04-02-2021 06:50:00 6.4 C 6.71 g/m*3 3.8 C 12.9 km/h
84 04-02-2021 06:55:00 6.5 C 6.75 g/m*3 4.2 C 11.3 km/h
85 04-02-2021 07:00:00 6.6 C 6.72 g/m*3 3.79 C 14.5 km/h
86 04-02-2021 07:05:00 6.7 C 6.76 g/m*3 4.17 C 12.9 km/h
87 04-02-2021 07:10:00 6.7 C 6.76 g/m*3 4.44 C 11.3 km/h
88 04-02-2021 07:15:00 6.7 C 6.76 g/m*3 4.75 C 9.7 km/h
89 04-02-2021 07:20:00 6.6 C 6.72 g/m*3 4.04 C 12.9 km/h
90 04-02-2021 07:25:00 6.6 C 6.72 g/m*3 5.44 C 6.4 km/h
91 04-02-2021 07:30:00 6.4 C 6.63 g/m*3 6.4 C 4.8 km/h
92 04-02-2021 07:35:00 6.3 C 6.59 g/m*3 5.1 C 6.4 km/h
93 04-02-2021 07:40:00 6.2 C 6.55 g/m*3 4.52 C 8.1 km/h
94 04-02-2021 07:45:00 6.1 C 6.58 g/m*3 6.1 C 4.8 km/h
95 04-02-2021 07:50:00 6 C 6.53 g/m*3 4.75 C 6.4 km/h
96 04-02-2021 07:55:00 5.9 C 6.49 g/m*3 4.63 C 6.4 km/h
97 04-02-2021 08:00:00 5.9 C 6.49 g/m*3 4.63 C 6.4 km/h
98 04-02-2021 08:05:00 5.9 C 6.49 g/m*3 4.17 C 8.1 km/h
99 04-02-2021 08:10:00 5.9 C 6.49 g/m*3 4.63 C 6.4 km/h
100 04-02-2021 08:15:00 5.9 C 6.49 g/m*3 4.17 C 8.1 km/h
Sensor: Nr:Datum:Temp:Abs-Feuchte:Windchill:Wind:
Aussen-T/F 101 04-02-2021 08:20:00 5.9 C 6.49 g/m*3 3.48 C 11.3 km/h
102 04-02-2021 08:25:00 5.9 C 6.49 g/m*3 5.9 C 4.8 km/h
103 04-02-2021 08:30:00 5.9 C 6.49 g/m*3 4.17 C 8.1 km/h
104 04-02-2021 08:35:00 5.8 C 6.45 g/m*3 4.05 C 8.1 km/h
105 04-02-2021 08:40:00 5.7 C 6.4 g/m*3 3.93 C 8.1 km/h
106 04-02-2021 08:45:00 5.6 C 6.36 g/m*3 5.6 C 4.8 km/h
107 04-02-2021 08:50:00 5.5 C 6.39 g/m*3 4.17 C 6.4 km/h
108 04-02-2021 08:55:00 5.4 C 6.35 g/m*3 5.4 C 3.2 km/h
109 04-02-2021 09:00:00 5.3 C 6.31 g/m*3 5.3 C 4.8 km/h
110 04-02-2021 09:05:00 5.3 C 6.31 g/m*3 5.3 C 1.6 km/h
111 04-02-2021 09:10:00 5.2 C 6.27 g/m*3 5.2 C 4.8 km/h
112 04-02-2021 09:15:00 5.2 C 6.33 g/m*3 5.2 C 3.2 km/h
113 04-02-2021 09:20:00 5.1 C 6.29 g/m*3 5.1 C 3.2 km/h
114 04-02-2021 09:25:00 5.1 C 6.29 g/m*3 5.1 C 3.2 km/h
115 04-02-2021 09:32:00 5.1 C 6.29 g/m*3 5.1 C 1.6 km/h
116 04-02-2021 09:35:00 5.1 C 6.36 g/m*3 5.1 C 1.6 km/h
117 04-02-2021 09:40:00 5.1 C 6.36 g/m*3 5.1 C 4.8 km/h
118 04-02-2021 09:45:00 5.1 C 6.36 g/m*3 5.1 C 4.8 km/h
119 04-02-2021 09:50:00 5.1 C 6.36 g/m*3 5.1 C 3.2 km/h
120 04-02-2021 09:55:00 5.1 C 6.36 g/m*3 5.1 C 3.2 km/h
121 04-02-2021 10:00:00 5.1 C 6.36 g/m*3 5.1 C 1.6 km/h
122 04-02-2021 10:05:00 5.1 C 6.36 g/m*3 5.1 C 3.2 km/h
123 04-02-2021 10:10:00 5.1 C 6.43 g/m*3 5.1 C 4.8 km/h
124 04-02-2021 10:15:00 5.2 C 6.47 g/m*3 5.2 C 1.6 km/h
125 04-02-2021 10:20:00 5.2 C 6.47 g/m*3 5.2 C 3.2 km/h
Sensor: Nr:Datum:Temp:Abs-Feuchte:Windchill:Wind:
Aussen-T/F 126 04-02-2021 10:25:00 5.2 C 6.4 g/m*3 5.2 C 3.2 km/h
127 04-02-2021 10:30:00 5.2 C 6.47 g/m*3 5.2 C 3.2 km/h
128 04-02-2021 10:35:00 5.3 C 6.52 g/m*3 5.3 C 4.8 km/h
129 04-02-2021 10:40:00 5.3 C 6.52 g/m*3 5.3 C 3.2 km/h
130 04-02-2021 10:45:00 5.4 C 6.49 g/m*3 5.4 C 4.8 km/h
131 04-02-2021 10:50:00 5.4 C 6.49 g/m*3 5.4 C 3.2 km/h
132 04-02-2021 10:55:00 5.5 C 6.53 g/m*3 4.17 C 6.4 km/h
133 04-02-2021 11:00:00 5.7 C 6.62 g/m*3 5.7 C 1.6 km/h
134 04-02-2021 11:05:00 5.8 C 6.66 g/m*3 4.52 C 6.4 km/h
135 04-02-2021 11:10:00 6 C 6.75 g/m*3 3.92 C 9.7 km/h
136 04-02-2021 11:15:00 6.2 C 6.77 g/m*3 4.98 C 6.4 km/h
137 04-02-2021 11:20:00 6.4 C 6.85 g/m*3 5.21 C 6.4 km/h
138 04-02-2021 11:25:00 6.7 C 6.91 g/m*3 4.75 C 9.7 km/h
139 04-02-2021 11:30:00 6.8 C 6.88 g/m*3 4.87 C 9.7 km/h
140 04-02-2021 11:35:00 7 C 6.9 g/m*3 4.53 C 12.9 km/h
141 04-02-2021 11:40:00 7.1 C 6.86 g/m*3 4.65 C 12.9 km/h
142 04-02-2021 11:45:00 7.1 C 6.86 g/m*3 4.92 C 11.3 km/h
143 04-02-2021 11:50:00 7.2 C 6.83 g/m*3 5.04 C 11.3 km/h
144 04-02-2021 11:55:00 7.2 C 6.91 g/m*3 6.13 C 6.4 km/h
145 04-02-2021 12:00:00 7.2 C 6.83 g/m*3 5.35 C 9.7 km/h
146 04-02-2021 12:05:00 7.3 C 6.87 g/m*3 4.9 C 12.9 km/h
147 04-02-2021 12:10:00 7.4 C 7 g/m*3 7.4 C 4.8 km/h
148 04-02-2021 12:15:00 7.4 C 7 g/m*3 5.93 C 8.1 km/h
149 04-02-2021 12:20:00 7.6 C 7.01 g/m*3 6.6 C 6.4 km/h
150 04-02-2021 12:25:00 7.7 C 7.05 g/m*3 5.65 C 11.3 km/h
Sensor: Nr:Datum:Temp:Abs-Feuchte:Windchill:Wind:
Aussen-T/F 151 04-02-2021 12:30:00 7.9 C 6.82 g/m*3 5.63 C 12.9 km/h
152 04-02-2021 12:35:00 8 C 6.86 g/m*3 6.01 C 11.3 km/h
153 04-02-2021 12:40:00 8.1 C 6.82 g/m*3 5.64 C 14.5 km/h
154 04-02-2021 12:45:00 8.2 C 6.78 g/m*3 5.55 C 16.1 km/h
155 04-02-2021 12:50:00 8.2 C 6.87 g/m*3 6.87 C 8.1 km/h
156 04-02-2021 12:55:00 8.2 C 6.95 g/m*3 8.2 C 3.2 km/h
157 04-02-2021 13:00:00 8.1 C 6.91 g/m*3 8.1 C 3.2 km/h
158 04-02-2021 13:05:00 8 C 6.86 g/m*3 6.64 C 8.1 km/h
159 04-02-2021 13:10:00 7.9 C 6.9 g/m*3 7.9 C 1.6 km/h
160 04-02-2021 13:15:00 7.9 C 6.82 g/m*3 6.94 C 6.4 km/h
161 04-02-2021 13:20:00 7.9 C 6.9 g/m*3 7.9 C 3.2 km/h
162 04-02-2021 13:25:00 7.9 C 6.9 g/m*3 6.94 C 6.4 km/h
163 04-02-2021 13:30:00 7.9 C 6.82 g/m*3 6.52 C 8.1 km/h
164 04-02-2021 13:35:00 7.9 C 6.74 g/m*3 6.52 C 8.1 km/h
165 04-02-2021 13:40:00 8 C 6.78 g/m*3 7.06 C 6.4 km/h
166 04-02-2021 13:45:00 8.1 C 6.91 g/m*3 8.1 C 4.8 km/h
167 04-02-2021 13:50:00 8.2 C 6.78 g/m*3 5.76 C 14.5 km/h
168 04-02-2021 13:55:00 8.4 C 6.79 g/m*3 6.01 C 14.5 km/h
169 04-02-2021 14:00:00 8.4 C 6.79 g/m*3 6.49 C 11.3 km/h
170 04-02-2021 14:05:00 8.5 C 6.92 g/m*3 7.22 C 8.1 km/h
171 04-02-2021 14:10:00 8.6 C 6.79 g/m*3 7.75 C 6.4 km/h
172 04-02-2021 14:15:00 8.7 C 6.83 g/m*3 6.85 C 11.3 km/h
173 04-02-2021 14:20:00 8.8 C 6.79 g/m*3 7.58 C 8.1 km/h
174 04-02-2021 14:25:00 8.9 C 6.83 g/m*3 8.1 C 6.4 km/h
175 04-02-2021 14:30:00 9 C 6.96 g/m*3 8.21 C 6.4 km/h
Sensor: Nr:Datum:Temp:Abs-Feuchte:Windchill:Wind:
Aussen-T/F 176 04-02-2021 14:35:00 9.1 C 7.01 g/m*3 9.1 C 4.8 km/h
177 04-02-2021 14:40:00 9.2 C 7.05 g/m*3 9.2 C 3.2 km/h
178 04-02-2021 14:45:00 9.1 C 6.92 g/m*3 7.61 C 9.7 km/h
179 04-02-2021 14:50:00 9.2 C 7.05 g/m*3 9.2 C 3.2 km/h
180 04-02-2021 14:55:00 9.2 C 6.97 g/m*3 9.2 C 4.8 km/h
181 04-02-2021 15:00:00 9.2 C 6.97 g/m*3 9.2 C 3.2 km/h
182 04-02-2021 15:05:00 9.1 C 7.01 g/m*3 9.1 C 4.8 km/h
183 04-02-2021 15:10:00 9 C 7.05 g/m*3 9 C 4.8 km/h
184 04-02-2021 15:15:00 8.8 C 6.96 g/m*3 8.8 C 3.2 km/h
185 04-02-2021 15:20:00 8.6 C 6.96 g/m*3 8.6 C 4.8 km/h
186 04-02-2021 15:25:00 8.4 C 6.87 g/m*3 8.4 C 3.2 km/h
187 04-02-2021 15:30:00 8.3 C 6.91 g/m*3 8.3 C 4.8 km/h
188 04-02-2021 15:35:00 8.2 C 6.95 g/m*3 8.2 C 3.2 km/h
189 04-02-2021 15:40:00 8 C 6.86 g/m*3 8 C 3.2 km/h
190 04-02-2021 15:45:00 7.9 C 6.9 g/m*3 7.9 C 4.8 km/h
191 04-02-2021 15:50:00 7.8 C 6.94 g/m*3 7.8 C 4.8 km/h
192 04-02-2021 15:55:00 7.7 C 6.89 g/m*3 7.7 C 4.8 km/h
193 04-02-2021 16:00:00 7.6 C 6.93 g/m*3 7.6 C 4.8 km/h
194 04-02-2021 16:05:00 7.4 C 6.84 g/m*3 6.37 C 6.4 km/h
195 04-02-2021 16:10:00 7.2 C 6.83 g/m*3 7.2 C 4.8 km/h
196 04-02-2021 16:15:00 7.1 C 6.79 g/m*3 6.02 C 6.4 km/h
197 04-02-2021 16:20:00 6.9 C 6.77 g/m*3 5.79 C 6.4 km/h
198 04-02-2021 16:25:00 6.8 C 6.73 g/m*3 6.8 C 4.8 km/h
199 04-02-2021 16:30:00 6.7 C 6.76 g/m*3 5.56 C 6.4 km/h
200 04-02-2021 16:35:00 6.6 C 6.72 g/m*3 5.44 C 6.4 km/h
Sensor: Nr:Datum:Temp:Abs-Feuchte:Windchill:Wind:
Aussen-T/F 201 04-02-2021 16:40:00 6.6 C 6.72 g/m*3 5.44 C 6.4 km/h
202 04-02-2021 16:45:00 6.5 C 6.75 g/m*3 6.5 C 4.8 km/h
203 04-02-2021 16:50:00 6.4 C 6.71 g/m*3 6.4 C 4.8 km/h
204 04-02-2021 16:55:00 6.3 C 6.66 g/m*3 6.3 C 4.8 km/h
205 04-02-2021 17:00:00 6.3 C 6.74 g/m*3 6.3 C 4.8 km/h
206 04-02-2021 17:05:00 6.3 C 6.74 g/m*3 6.3 C 4.8 km/h
207 04-02-2021 17:10:00 6.2 C 6.69 g/m*3 6.2 C 4.8 km/h
208 04-02-2021 17:15:00 6.2 C 6.69 g/m*3 6.2 C 4.8 km/h
209 04-02-2021 17:20:00 6.1 C 6.65 g/m*3 6.1 C 4.8 km/h
210 04-02-2021 17:25:00 6.1 C 6.65 g/m*3 6.1 C 4.8 km/h
211 04-02-2021 17:30:00 6.1 C 6.65 g/m*3 6.1 C 4.8 km/h
212 04-02-2021 17:35:00 6 C 6.6 g/m*3 6 C 4.8 km/h
213 04-02-2021 17:40:00 6 C 6.68 g/m*3 6 C 4.8 km/h
214 04-02-2021 17:45:00 5.9 C 6.63 g/m*3 5.9 C 3.2 km/h
215 04-02-2021 17:50:00 5.9 C 6.63 g/m*3 5.9 C 4.8 km/h
216 04-02-2021 17:55:00 5.9 C 6.63 g/m*3 5.9 C 4.8 km/h
217 04-02-2021 18:00:00 5.9 C 6.63 g/m*3 5.9 C 4.8 km/h
218 04-02-2021 18:05:00 5.8 C 6.59 g/m*3 5.8 C 1.6 km/h
219 04-02-2021 18:10:00 5.8 C 6.59 g/m*3 5.8 C 3.2 km/h
220 04-02-2021 18:15:00 5.7 C 6.55 g/m*3 5.7 C 3.2 km/h
221 04-02-2021 18:20:00 5.7 C 6.55 g/m*3 5.7 C 3.2 km/h
222 04-02-2021 18:25:00 5.6 C 6.5 g/m*3 5.6 C 3.2 km/h
223 04-02-2021 18:30:00 5.6 C 6.5 g/m*3 5.6 C 0 km/h
224 04-02-2021 18:35:00 5.6 C 6.5 g/m*3 5.6 C 4.8 km/h
225 04-02-2021 18:40:00 5.6 C 6.57 g/m*3 5.6 C 4.8 km/h
Sensor: Nr:Datum:Temp:Abs-Feuchte:Windchill:Wind:
Aussen-T/F 226 04-02-2021 18:45:00 5.6 C 6.57 g/m*3 5.6 C 3.2 km/h
227 04-02-2021 18:50:00 5.6 C 6.57 g/m*3 5.6 C 0 km/h
228 04-02-2021 18:55:00 5.5 C 6.53 g/m*3 5.5 C 0 km/h
229 04-02-2021 19:00:00 5.4 C 6.49 g/m*3 5.4 C 0 km/h
230 04-02-2021 19:05:00 5.4 C 6.49 g/m*3 5.4 C 0 km/h
231 04-02-2021 19:10:00 5.3 C 6.45 g/m*3 5.3 C 0 km/h
232 04-02-2021 19:15:00 5.3 C 6.45 g/m*3 5.3 C 1.6 km/h
233 04-02-2021 19:20:00 5.3 C 6.45 g/m*3 5.3 C 0 km/h
234 04-02-2021 19:25:00 5.3 C 6.45 g/m*3 5.3 C 0 km/h
235 04-02-2021 19:30:00 5.3 C 6.45 g/m*3 5.3 C 0 km/h
236 04-02-2021 19:35:00 5.2 C 6.4 g/m*3 5.2 C 0 km/h
237 04-02-2021 19:40:00 5.2 C 6.4 g/m*3 5.2 C 1.6 km/h
238 04-02-2021 19:45:00 5.2 C 6.4 g/m*3 5.2 C 0 km/h
239 04-02-2021 19:50:00 5.1 C 6.36 g/m*3 5.1 C 0 km/h
240 04-02-2021 19:55:00 5.1 C 6.43 g/m*3 5.1 C 0 km/h
241 04-02-2021 20:00:00 5.1 C 6.43 g/m*3 5.1 C 0 km/h
242 04-02-2021 20:05:00 4.9 C 6.35 g/m*3 4.9 C 0 km/h
243 04-02-2021 20:10:00 4.8 C 6.3 g/m*3 4.8 C 1.6 km/h
244 04-02-2021 20:15:00 4.8 C 6.3 g/m*3 4.8 C 0 km/h
245 04-02-2021 20:20:00 4.8 C 6.3 g/m*3 4.8 C 0 km/h
246 04-02-2021 20:25:00 4.8 C 6.3 g/m*3 4.8 C 0 km/h
247 04-02-2021 20:30:00 4.7 C 6.26 g/m*3 4.7 C 1.6 km/h
248 04-02-2021 20:35:00 4.6 C 6.22 g/m*3 4.6 C 0 km/h
249 04-02-2021 20:40:00 4.6 C 6.22 g/m*3 4.6 C 0 km/h
250 04-02-2021 20:45:00 4.5 C 6.18 g/m*3 4.5 C 0 km/h
Sensor: Nr:Datum:Temp:Abs-Feuchte:Windchill:Wind:
Aussen-T/F 251 04-02-2021 20:50:00 4.4 C 6.14 g/m*3 4.4 C 0 km/h
252 04-02-2021 20:55:00 4.4 C 6.14 g/m*3 4.4 C 0 km/h
253 04-02-2021 21:00:00 4.5 C 6.24 g/m*3 4.5 C 1.6 km/h
254 04-02-2021 21:05:00 4.6 C 6.29 g/m*3 4.6 C 0 km/h
255 04-02-2021 21:10:00 4.7 C 6.33 g/m*3 4.7 C 0 km/h
256 04-02-2021 21:15:00 4.8 C 6.37 g/m*3 4.8 C 0 km/h
257 04-02-2021 21:20:00 4.8 C 6.37 g/m*3 4.8 C 0 km/h
258 04-02-2021 21:25:00 4.8 C 6.37 g/m*3 4.8 C 0 km/h
259 04-02-2021 21:30:00 4.9 C 6.41 g/m*3 4.9 C 0 km/h
260 04-02-2021 21:35:00 4.9 C 6.41 g/m*3 4.9 C 0 km/h
261 04-02-2021 21:40:00 4.9 C 6.41 g/m*3 4.9 C 0 km/h
262 04-02-2021 21:45:00 4.9 C 6.41 g/m*3 4.9 C 3.2 km/h
263 04-02-2021 21:50:00 4.8 C 6.37 g/m*3 4.8 C 0 km/h
264 04-02-2021 21:55:00 4.8 C 6.37 g/m*3 4.8 C 0 km/h
265 04-02-2021 22:00:00 4.8 C 6.37 g/m*3 4.8 C 0 km/h
266 04-02-2021 22:05:00 4.8 C 6.37 g/m*3 4.8 C 0 km/h
267 04-02-2021 22:10:00 4.8 C 6.37 g/m*3 4.8 C 0 km/h
268 04-02-2021 22:15:00 4.8 C 6.37 g/m*3 4.8 C 0 km/h
269 04-02-2021 22:20:00 4.9 C 6.41 g/m*3 4.9 C 0 km/h
270 04-02-2021 22:25:00 4.9 C 6.41 g/m*3 4.9 C 0 km/h
271 04-02-2021 22:30:00 4.8 C 6.37 g/m*3 4.8 C 1.6 km/h
272 04-02-2021 22:35:00 4.8 C 6.37 g/m*3 4.8 C 0 km/h
273 04-02-2021 22:40:00 4.8 C 6.37 g/m*3 4.8 C 0 km/h
274 04-02-2021 22:45:00 4.8 C 6.37 g/m*3 4.8 C 0 km/h
275 04-02-2021 22:50:00 4.8 C 6.37 g/m*3 4.8 C 0 km/h
Sensor: Nr:Datum:Temp:Abs-Feuchte:Windchill:Wind:
Aussen-T/F 276 04-02-2021 22:55:00 4.9 C 6.41 g/m*3 4.9 C 0 km/h
277 04-02-2021 23:00:00 4.9 C 6.41 g/m*3 4.9 C 0 km/h
278 04-02-2021 23:05:00 4.9 C 6.41 g/m*3 4.9 C 0 km/h
279 04-02-2021 23:10:00 4.9 C 6.41 g/m*3 4.9 C 0 km/h
280 04-02-2021 23:15:00 5 C 6.46 g/m*3 5 C 0 km/h
281 04-02-2021 23:20:00 5.1 C 6.5 g/m*3 5.1 C 0 km/h
282 04-02-2021 23:25:00 5.1 C 6.5 g/m*3 5.1 C 0 km/h
283 04-02-2021 23:30:00 5.1 C 6.5 g/m*3 5.1 C 0 km/h
284 04-02-2021 23:35:00 5.1 C 6.57 g/m*3 5.1 C 0 km/h
285 04-02-2021 23:40:00 5.2 C 6.61 g/m*3 5.2 C 0 km/h
286 04-02-2021 23:45:00 5.2 C 6.61 g/m*3 5.2 C 0 km/h
287 04-02-2021 23:50:00 5.2 C 6.61 g/m*3 5.2 C 0 km/h
288 04-02-2021 23:55:00 5.2 C 6.61 g/m*3 5.2 C 0 km/h

Legende:
   Min
   Max


Maximal/Minimal-Werte vom 04.02.2021 - 04.02.2021

Sensor Min Max Avg
Temp
(Aussen-T/F)
4.4 °C
04-02-2021  20:50:00
9.6 °C
04-02-2021  00:00:00
6.63 °C
Abs-Feuchte
(Aussen-T/F)
6.14 g/m*3
04-02-2021  20:50:00
7.83 g/m*3
04-02-2021  00:10:00
6.72 g/m*3
Windchill
(Aussen-T/F)
3.48 C
04-02-2021  08:20:00
9.2 C
04-02-2021  14:40:00
5.69 C

Die Daten stammen von einer Davis Vantage Pro 2 Wetter-Station und werden unter Linux mit der Software wview2wettercgi und aufbereitet. Alle Angaben erfolgen ohne Gewähr für ihre Vollständigkeit oder Richtigkeit.
Kontakt: Rainer Krienke krienke@uni-koblenz.de . Meine Webseiten an der Uni Koblenz oder privat.
Version: $Revision: 0.78 $